createdAt,value
2018-03-29T00:02:27.173Z,76.97
2018-03-29T00:04:57.023Z,82.83
2018-03-29T00:07:26.163Z,83.27
2018-03-29T00:09:55.254Z,82.70
2018-03-29T00:12:24.492Z,82.97
2018-03-29T00:14:53.557Z,92.90
2018-03-29T00:17:22.649Z,92.17
2018-03-29T00:19:51.552Z,91.17
2018-03-29T00:22:21.652Z,96.33
2018-03-29T00:24:50.832Z,95.00
2018-03-29T00:27:20.091Z,92.97
2018-03-29T00:29:49.153Z,94.73
2018-03-29T00:32:18.358Z,96.80
2018-03-29T00:34:47.449Z,97.60
2018-03-29T00:37:16.451Z,100.57
2018-03-29T00:39:45.550Z,97.70
2018-03-29T00:42:14.679Z,101.57
2018-03-29T00:44:43.747Z,102.20
2018-03-29T00:47:12.879Z,104.47
2018-03-29T00:49:41.871Z,106.30
2018-03-29T00:52:10.968Z,106.97
2018-03-29T00:54:39.859Z,105.40
2018-03-29T00:57:08.955Z,106.53
2018-03-29T00:59:38.008Z,105.90
2018-03-29T01:02:07.963Z,112.60
2018-03-29T01:04:36.923Z,111.60
2018-03-29T01:07:06.786Z,113.60
2018-03-29T01:09:35.771Z,104.47
2018-03-29T01:12:04.758Z,114.47
2018-03-29T01:14:33.745Z,108.43
2018-03-29T01:17:03.770Z,116.30
2018-03-29T01:19:32.766Z,109.13
2018-03-29T01:22:02.041Z,115.87
2018-03-29T01:24:31.030Z,111.30
2018-03-29T01:27:00.230Z,112.40
2018-03-29T01:29:29.336Z,121.73
2018-03-29T01:31:59.347Z,118.73
2018-03-29T01:34:29.147Z,120.00
2018-03-29T01:36:58.379Z,114.43
2018-03-29T01:39:27.622Z,113.77
2018-03-29T01:41:56.896Z,112.70
2018-03-29T01:44:25.986Z,106.10
2018-03-29T01:46:55.162Z,108.90
2018-03-29T01:49:24.144Z,104.80
2018-03-29T01:51:53.382Z,118.37
2018-03-29T01:54:22.336Z,113.37
2018-03-29T01:56:51.506Z,120.57
2018-03-29T01:59:20.475Z,116.80
2018-03-29T02:01:49.633Z,117.53
2018-03-29T02:04:18.519Z,114.70
2018-03-29T02:06:48.556Z,122.77
2018-03-29T02:09:17.850Z,121.10
2018-03-29T02:11:47.077Z,120.30
2018-03-29T02:14:16.139Z,118.10
2018-03-29T02:16:45.246Z,119.07
2018-03-29T02:19:13.936Z,114.97
2018-03-29T02:21:43.186Z,116.73
2018-03-29T02:24:12.059Z,117.37
2018-03-29T02:26:41.178Z,115.40
2018-03-29T02:29:10.105Z,116.50
2018-03-29T02:31:39.223Z,110.37
2018-03-29T02:34:09.050Z,106.17
2018-03-29T02:36:38.830Z,105.37
2018-03-29T02:39:07.866Z,103.97
2018-03-29T02:41:36.929Z,105.33
2018-03-29T02:44:05.811Z,102.67
2018-03-29T02:46:34.818Z,103.80
2018-03-29T02:49:03.795Z,102.87
2018-03-29T02:51:32.772Z,104.57
2018-03-29T02:54:01.686Z,101.00
2018-03-29T02:56:30.749Z,104.83
2018-03-29T02:59:00.530Z,99.57
2018-03-29T03:01:29.636Z,94.73
2018-03-29T03:03:59.138Z,95.47
2018-03-29T03:06:29.127Z,91.63
2018-03-29T03:08:58.216Z,91.27
2018-03-29T03:11:27.564Z,92.87
2018-03-29T03:13:56.520Z,100.00
2018-03-29T03:16:25.755Z,93.20
2018-03-29T03:18:54.751Z,98.50
2018-03-29T03:21:23.941Z,97.60
2018-03-29T03:23:52.932Z,100.47
2018-03-29T03:26:22.954Z,105.77
2018-03-29T03:28:51.945Z,104.53
2018-03-29T03:31:21.123Z,96.50
2018-03-29T03:33:49.913Z,98.80
2018-03-29T03:36:19.121Z,109.40
2018-03-29T03:38:48.710Z,98.10
2018-03-29T03:41:18.734Z,96.27
2018-03-29T03:43:47.735Z,91.83
2018-03-29T03:46:16.930Z,100.63
2018-03-29T03:48:45.930Z,92.77
2018-03-29T03:51:14.917Z,91.37
2018-03-29T03:53:43.909Z,83.07
2018-03-29T03:56:13.117Z,88.03
2018-03-29T03:58:42.111Z,90.77
2018-03-29T04:01:11.342Z,90.50
2018-03-29T04:03:40.338Z,97.73
2018-03-29T04:06:09.707Z,87.37
2018-03-29T04:08:38.591Z,78.87
2018-03-29T04:11:07.715Z,91.10
2018-03-29T04:13:36.578Z,78.80
2018-03-29T04:16:06.530Z,81.90
2018-03-29T04:18:35.621Z,82.70
2018-03-29T04:21:04.804Z,67.13
2018-03-29T04:23:33.794Z,73.47
2018-03-29T04:26:03.873Z,87.33
2018-03-29T04:28:33.243Z,82.80
2018-03-29T04:31:03.029Z,65.83
2018-03-29T04:33:31.955Z,66.27
2018-03-29T04:36:01.050Z,59.30
2018-03-29T04:38:30.935Z,62.00
2018-03-29T04:41:00.141Z,69.37
2018-03-29T04:43:29.238Z,80.57
2018-03-29T04:45:58.151Z,68.33
2018-03-29T04:48:27.876Z,68.03
2018-03-29T04:50:56.931Z,59.63
2018-03-29T04:53:25.862Z,59.80
2018-03-29T04:55:54.850Z,53.17
2018-03-29T04:58:23.850Z,63.40
2018-03-29T05:00:52.871Z,53.83
2018-03-29T05:03:21.830Z,210.77
2018-03-29T05:05:51.932Z,61.97
2018-03-29T05:08:21.127Z,59.83
2018-03-29T05:10:50.256Z,45.80
2018-03-29T05:13:19.237Z,53.87
2018-03-29T05:15:49.257Z,47.03
2018-03-29T05:18:18.943Z,47.73
2018-03-29T05:20:47.998Z,40.97
2018-03-29T05:23:17.964Z,43.97
2018-03-29T05:25:47.162Z,39.03
2018-03-29T05:28:16.155Z,53.70
2018-03-29T05:30:45.394Z,42.10
2018-03-29T05:33:14.352Z,47.63
2018-03-29T05:35:43.477Z,39.37
2018-03-29T05:38:12.371Z,39.27
2018-03-29T05:40:41.571Z,41.90
2018-03-29T05:43:10.521Z,40.93
2018-03-29T05:45:39.763Z,40.07
2018-03-29T05:48:08.729Z,41.60
2018-03-29T05:50:37.950Z,44.40
2018-03-29T05:53:06.952Z,36.23
2018-03-29T05:55:36.112Z,42.77
2018-03-29T05:58:05.114Z,46.33
2018-03-29T06:00:34.061Z,49.43
2018-03-29T06:03:02.852Z,41.10
2018-03-29T06:05:32.882Z,37.50
2018-03-29T06:08:02.506Z,40.73
2018-03-29T06:10:31.726Z,48.60
2018-03-29T06:13:01.563Z,41.27
2018-03-29T06:15:33.485Z,48.53
2018-03-29T06:18:03.888Z,34.37
2018-03-29T06:20:33.155Z,39.23
2018-03-29T06:23:02.822Z,59.23
2018-03-29T06:25:32.859Z,51.30
2018-03-29T06:28:01.851Z,48.70
2018-03-29T06:30:31.931Z,39.20
2018-03-29T06:33:01.067Z,36.97
2018-03-29T06:35:30.295Z,37.43
2018-03-29T06:37:59.390Z,35.37
2018-03-29T06:40:28.568Z,41.10
2018-03-29T06:42:57.667Z,32.70
2018-03-29T06:45:27.788Z,39.53
2018-03-29T06:47:57.522Z,35.30
2018-03-29T06:50:26.419Z,31.70
2018-03-29T06:52:55.409Z,28.97
2018-03-29T06:55:25.428Z,32.33
2018-03-29T06:57:54.418Z,38.07
2018-03-29T07:00:23.694Z,27.57
2018-03-29T07:02:53.605Z,26.37
2018-03-29T07:05:22.905Z,35.90
2018-03-29T07:07:52.039Z,40.80
2018-03-29T07:10:21.309Z,25.10
2018-03-29T07:12:50.507Z,26.90
2018-03-29T07:15:19.611Z,28.80
2018-03-29T07:17:48.597Z,31.20
2018-03-29T07:20:17.689Z,33.90
2018-03-29T07:22:46.684Z,32.37
2018-03-29T07:25:16.706Z,37.73
2018-03-29T07:27:45.701Z,41.30
2018-03-29T07:30:14.931Z,43.90
2018-03-29T07:32:44.009Z,39.80
2018-03-29T07:35:13.093Z,44.20
2018-03-29T07:37:42.102Z,52.47
2018-03-29T07:40:11.185Z,53.03
2018-03-29T07:42:40.188Z,43.90
2018-03-29T07:45:09.423Z,47.90
2018-03-29T07:47:38.320Z,40.73
2018-03-29T07:50:07.506Z,56.63
2018-03-29T07:52:36.403Z,53.67
2018-03-29T07:55:05.525Z,53.57
2018-03-29T07:57:34.446Z,42.73
2018-03-29T08:00:03.528Z,45.07
2018-03-29T08:02:32.487Z,42.77
2018-03-29T08:05:01.608Z,47.20
2018-03-29T08:07:30.575Z,40.90
2018-03-29T08:09:59.708Z,43.00
2018-03-29T08:12:28.672Z,40.20
2018-03-29T08:14:57.925Z,47.60
2018-03-29T08:17:26.815Z,44.13
2018-03-29T08:19:56.847Z,43.43
2018-03-29T08:22:25.943Z,47.17
2018-03-29T08:24:54.942Z,43.83
2018-03-29T08:27:23.927Z,40.90
2018-03-29T08:29:52.927Z,53.57
2018-03-29T08:32:22.509Z,43.80
2018-03-29T08:34:52.113Z,45.80
2018-03-29T08:37:21.881Z,39.73
2018-03-29T08:39:50.992Z,39.67
2018-03-29T08:42:19.974Z,39.27
2018-03-29T08:44:49.147Z,39.07
2018-03-29T08:47:18.882Z,37.00
2018-03-29T08:49:48.159Z,31.33
2018-03-29T08:52:17.205Z,35.33
2018-03-29T08:54:46.245Z,41.73
2018-03-29T08:57:15.352Z,26.60
2018-03-29T08:59:44.565Z,27.17
2018-03-29T09:02:13.569Z,25.10
2018-03-29T09:04:42.707Z,26.43
2018-03-29T09:07:11.604Z,26.63
2018-03-29T09:09:40.698Z,29.30
2018-03-29T09:12:10.467Z,31.00
2018-03-29T09:14:39.568Z,32.90
2018-03-29T09:17:08.843Z,35.63
2018-03-29T09:19:38.069Z,35.00
2018-03-29T09:22:07.134Z,32.13
2018-03-29T09:24:37.807Z,31.53
2018-03-29T09:27:06.757Z,33.93
2018-03-29T09:29:35.990Z,35.53
2018-03-29T09:32:04.991Z,33.10
2018-03-29T09:34:34.191Z,37.50
2018-03-29T09:37:03.187Z,33.27
2018-03-29T09:39:32.310Z,33.67
2018-03-29T09:42:01.283Z,34.53
2018-03-29T09:44:30.407Z,32.70
2018-03-29T09:47:00.256Z,49.60
2018-03-29T09:49:29.553Z,36.73
2018-03-29T09:51:58.545Z,38.07
2018-03-29T09:54:27.850Z,36.97
2018-03-29T09:56:57.754Z,36.17
2018-03-29T09:59:27.755Z,38.10
2018-03-29T10:01:56.871Z,47.70
2018-03-29T10:04:26.570Z,38.10
2018-03-29T10:07:01.161Z,36.33
2018-03-29T10:09:30.477Z,37.30
2018-03-29T10:11:59.579Z,35.13
2018-03-29T10:14:28.850Z,36.83
2018-03-29T10:16:57.950Z,33.03
2018-03-29T10:19:27.222Z,34.90
2018-03-29T10:21:56.210Z,34.57
2018-03-29T10:24:25.364Z,33.53
2018-03-29T10:26:54.338Z,35.30
2018-03-29T10:29:23.467Z,38.63
2018-03-29T10:31:52.431Z,34.27
2018-03-29T10:34:21.560Z,34.33
2018-03-29T10:36:50.520Z,34.40
2018-03-29T10:39:19.610Z,36.13
2018-03-29T10:41:48.506Z,35.23
2018-03-29T10:44:17.590Z,33.23
2018-03-29T10:46:47.487Z,34.47
2018-03-29T10:49:17.262Z,34.23
2018-03-29T10:51:46.179Z,32.80
2018-03-29T10:54:15.241Z,33.87
2018-03-29T10:56:44.180Z,35.90
2018-03-29T10:59:13.279Z,36.60
2018-03-29T11:01:42.466Z,39.57
2018-03-29T11:04:11.471Z,37.07
2018-03-29T11:06:40.337Z,35.50
2018-03-29T11:09:10.384Z,39.43
2018-03-29T11:11:39.472Z,39.87
2018-03-29T11:14:08.686Z,39.40
2018-03-29T11:16:37.774Z,38.63
2018-03-29T11:19:06.984Z,35.50
2018-03-29T11:21:36.113Z,37.27
2018-03-29T11:24:05.235Z,38.17
2018-03-29T11:26:34.190Z,36.73
2018-03-29T11:29:03.318Z,40.03
2018-03-29T11:31:32.229Z,41.43
2018-03-29T11:34:02.279Z,41.33
2018-03-29T11:36:31.289Z,41.80
2018-03-29T11:39:01.082Z,42.07
2018-03-29T11:41:30.063Z,40.33
2018-03-29T11:43:59.080Z,38.17
2018-03-29T11:46:28.813Z,36.53
2018-03-29T11:48:58.086Z,37.63
2018-03-29T11:51:27.079Z,34.77
2018-03-29T11:53:56.274Z,33.20
2018-03-29T11:56:25.307Z,37.07
2018-03-29T11:58:54.493Z,32.93
2018-03-29T12:01:23.503Z,33.87
2018-03-29T12:03:52.589Z,35.30
2018-03-29T12:06:21.595Z,36.00
2018-03-29T12:08:50.682Z,35.47
2018-03-29T12:11:19.674Z,35.97
2018-03-29T12:13:48.697Z,35.73
2018-03-29T12:16:17.671Z,33.03
2018-03-29T12:18:46.707Z,35.23
2018-03-29T12:21:16.541Z,37.90
2018-03-29T12:23:46.000Z,36.80
2018-03-29T12:26:15.051Z,36.63
2018-03-29T12:28:44.201Z,38.13
2018-03-29T12:31:13.165Z,34.10
2018-03-29T12:33:42.374Z,37.00
2018-03-29T12:36:11.367Z,38.20
2018-03-29T12:38:40.387Z,38.40
2018-03-29T12:41:10.237Z,37.37
2018-03-29T12:43:39.546Z,36.23
2018-03-29T12:46:08.543Z,37.03
2018-03-29T12:48:37.761Z,41.33
2018-03-29T12:51:07.081Z,38.13
2018-03-29T12:53:36.143Z,39.03
2018-03-29T12:56:05.575Z,37.17
2018-03-29T12:58:34.430Z,37.03
2018-03-29T13:01:03.724Z,38.87
2018-03-29T13:03:32.934Z,38.50
2018-03-29T13:06:02.038Z,39.90
2018-03-29T13:08:31.339Z,39.73
2018-03-29T13:11:00.331Z,42.23
2018-03-29T13:13:29.630Z,41.27
2018-03-29T13:15:59.542Z,41.50
2018-03-29T13:18:28.774Z,44.33
2018-03-29T13:20:57.870Z,43.50
2018-03-29T13:23:27.655Z,45.77
2018-03-29T13:25:57.123Z,46.13
2018-03-29T13:28:26.390Z,43.33
2018-03-29T13:30:55.673Z,43.07
2018-03-29T13:33:24.894Z,43.53
2018-03-29T13:35:53.777Z,43.23
2018-03-29T13:38:22.892Z,40.73
2018-03-29T13:40:51.833Z,41.17
2018-03-29T13:43:21.216Z,40.13
2018-03-29T13:45:50.278Z,39.43
2018-03-29T13:48:21.694Z,39.77
2018-03-29T13:50:50.791Z,39.60
2018-03-29T13:53:20.094Z,38.40
2018-03-29T13:55:49.094Z,39.57
2018-03-29T13:58:18.292Z,40.60
2018-03-29T14:00:47.389Z,42.17
2018-03-29T14:03:16.519Z,43.70
2018-03-29T14:05:45.501Z,45.40
2018-03-29T14:08:15.522Z,43.73
2018-03-29T14:10:44.523Z,44.77
2018-03-29T14:13:13.899Z,43.43
2018-03-29T14:15:42.989Z,45.30
2018-03-29T14:18:12.151Z,44.80
2018-03-29T14:20:42.030Z,42.33
2018-03-29T14:23:11.746Z,45.53
2018-03-29T14:25:40.643Z,42.00
2018-03-29T14:28:09.804Z,43.07
2018-03-29T14:30:38.788Z,43.77
2018-03-29T14:33:07.795Z,42.87
2018-03-29T14:35:37.639Z,42.50
2018-03-29T14:38:06.805Z,39.20
2018-03-29T14:40:35.919Z,43.80
2018-03-29T14:43:05.211Z,43.43
2018-03-29T14:45:35.080Z,42.57
2018-03-29T14:48:04.875Z,44.80
2018-03-29T14:50:33.871Z,44.63
2018-03-29T14:53:02.994Z,44.27
2018-03-29T14:55:31.959Z,42.57
2018-03-29T14:58:01.330Z,43.60
2018-03-29T15:00:31.151Z,46.97
2018-03-29T15:03:00.851Z,47.17
2018-03-29T15:05:30.140Z,46.17
2018-03-29T15:07:59.349Z,45.83
2018-03-29T15:10:28.448Z,46.23
2018-03-29T15:12:57.745Z,46.87
2018-03-29T15:15:26.752Z,47.93
2018-03-29T15:17:56.056Z,48.27
2018-03-29T15:20:25.069Z,47.87
2018-03-29T15:22:54.193Z,50.57
2018-03-29T15:25:23.162Z,49.37
2018-03-29T15:27:52.130Z,48.33
2018-03-29T15:30:21.254Z,47.03
2018-03-29T15:32:50.286Z,44.30
2018-03-29T15:35:20.166Z,45.97
2018-03-29T15:37:49.258Z,50.00
2018-03-29T15:40:18.256Z,47.47
2018-03-29T15:42:47.526Z,48.87
2018-03-29T15:45:16.526Z,50.57
2018-03-29T15:47:45.723Z,48.60
2018-03-29T15:50:14.714Z,47.43
2018-03-29T15:52:43.947Z,51.00
2018-03-29T15:55:12.944Z,47.43
2018-03-29T15:57:42.066Z,52.20
2018-03-29T16:00:11.090Z,52.37
2018-03-29T16:02:40.168Z,50.57
2018-03-29T16:05:09.076Z,51.30
2018-03-29T16:07:38.146Z,51.90
2018-03-29T16:10:07.089Z,53.30
2018-03-29T16:12:36.204Z,55.60
2018-03-29T16:15:05.569Z,53.10
2018-03-29T16:17:34.883Z,55.43
2018-03-29T16:20:04.015Z,55.33
2018-03-29T16:22:33.003Z,55.37
2018-03-29T16:25:02.079Z,56.90
2018-03-29T16:27:31.379Z,54.60
2018-03-29T16:30:00.371Z,54.97
2018-03-29T16:32:29.858Z,53.00
2018-03-29T16:34:59.061Z,53.67
2018-03-29T16:37:28.370Z,55.97
2018-03-29T16:39:57.500Z,54.37
2018-03-29T16:42:27.413Z,50.20
2018-03-29T16:44:57.203Z,53.47
2018-03-29T16:47:26.394Z,55.20
2018-03-29T16:49:55.504Z,54.30
2018-03-29T16:52:24.639Z,56.93
2018-03-29T16:54:53.623Z,59.73
2018-03-29T16:57:22.646Z,56.00
2018-03-29T16:59:51.611Z,57.20
2018-03-29T17:02:20.625Z,51.03
2018-03-29T17:04:49.594Z,48.83
2018-03-29T17:07:18.628Z,50.10
2018-03-29T17:09:47.591Z,53.07
2018-03-29T17:12:16.690Z,52.40
2018-03-29T17:14:45.669Z,59.97
2018-03-29T17:17:15.691Z,60.33
2018-03-29T17:19:44.677Z,60.00
2018-03-29T17:22:13.958Z,57.90
2018-03-29T17:24:42.778Z,54.80
2018-03-29T17:27:12.059Z,52.57
2018-03-29T17:29:41.146Z,48.27
2018-03-29T17:32:10.355Z,45.53
2018-03-29T17:34:39.479Z,46.67
2018-03-29T17:37:08.508Z,44.13
2018-03-29T17:39:37.573Z,44.87
2018-03-29T17:42:06.596Z,45.30
2018-03-29T17:44:36.438Z,43.67
2018-03-29T17:47:05.652Z,42.47
2018-03-29T17:49:35.649Z,44.73
2018-03-29T17:52:05.099Z,51.47
2018-03-29T17:54:34.176Z,50.40
2018-03-29T17:57:03.467Z,47.63
2018-03-29T17:59:32.475Z,54.03
2018-03-29T18:02:01.603Z,51.53
2018-03-29T18:04:30.648Z,53.17
2018-03-29T18:06:59.754Z,52.13
2018-03-29T18:09:28.754Z,50.93
2018-03-29T18:11:57.703Z,52.20
2018-03-29T18:14:26.670Z,52.90
2018-03-29T18:16:55.691Z,51.83
2018-03-29T18:19:24.653Z,53.33
2018-03-29T18:21:53.850Z,55.03
2018-03-29T18:24:23.730Z,56.13
2018-03-29T18:26:52.963Z,54.13
2018-03-29T18:29:22.628Z,54.73
2018-03-29T18:31:52.562Z,52.53
2018-03-29T18:34:21.764Z,54.93
2018-03-29T18:36:51.883Z,54.77
2018-03-29T18:39:21.015Z,58.20
2018-03-29T18:41:50.280Z,54.13
2018-03-29T18:44:19.379Z,56.70
2018-03-29T18:46:48.377Z,53.07
2018-03-29T18:49:17.465Z,54.27
2018-03-29T18:51:46.603Z,57.33
2018-03-29T18:54:15.558Z,54.27
2018-03-29T18:56:44.760Z,56.40
2018-03-29T18:59:13.790Z,55.53
2018-03-29T19:01:42.887Z,55.23
2018-03-29T19:04:11.874Z,54.90
2018-03-29T19:06:41.763Z,54.87
2018-03-29T19:09:10.886Z,54.47
2018-03-29T19:11:40.171Z,57.33
2018-03-29T19:14:09.264Z,57.77
2018-03-29T19:16:39.332Z,57.73
2018-03-29T19:19:08.475Z,59.70
2018-03-29T19:21:37.500Z,60.17
2018-03-29T19:24:06.599Z,61.13
2018-03-29T19:26:35.771Z,61.93
2018-03-29T19:29:05.771Z,60.20
2018-03-29T19:31:35.091Z,61.47
2018-03-29T19:34:04.179Z,58.87
2018-03-29T19:36:33.485Z,55.90
2018-03-29T19:39:02.681Z,60.37
2018-03-29T19:41:31.951Z,57.00
2018-03-29T19:44:01.903Z,58.93
2018-03-29T19:46:31.125Z,61.30
2018-03-29T19:49:00.962Z,58.33
2018-03-29T19:51:30.010Z,59.30
2018-03-29T19:53:58.894Z,60.77
2018-03-29T19:56:27.905Z,59.37
2018-03-29T19:58:56.785Z,62.23
2018-03-29T20:01:25.851Z,60.67
2018-03-29T20:03:54.866Z,59.03
2018-03-29T20:06:24.826Z,59.77
2018-03-29T20:08:53.930Z,62.13
2018-03-29T20:11:23.308Z,60.30
2018-03-29T20:13:52.303Z,62.87
2018-03-29T20:16:21.459Z,63.87
2018-03-29T20:18:50.419Z,63.87
2018-03-29T20:21:19.542Z,61.33
2018-03-29T20:23:48.511Z,62.07
2018-03-29T20:26:17.630Z,62.77
2018-03-29T20:28:46.696Z,60.97
2018-03-29T20:31:15.817Z,65.43
2018-03-29T20:33:45.566Z,63.80
2018-03-29T20:36:14.781Z,61.83
2018-03-29T20:38:43.874Z,62.27
2018-03-29T20:41:13.074Z,62.67
2018-03-29T20:43:42.077Z,61.27
2018-03-29T20:46:11.303Z,60.03
2018-03-29T20:48:40.261Z,63.00
2018-03-29T20:51:09.427Z,62.77
2018-03-29T20:53:38.382Z,65.20
2018-03-29T20:56:07.478Z,67.97
2018-03-29T20:58:36.383Z,69.17
2018-03-29T21:01:05.508Z,70.23
2018-03-29T21:03:34.478Z,65.97
2018-03-29T21:06:03.475Z,65.63
2018-03-29T21:08:32.358Z,62.97
2018-03-29T21:11:01.554Z,64.87
2018-03-29T21:13:30.441Z,64.70
2018-03-29T21:15:59.642Z,66.03
2018-03-29T21:18:29.427Z,66.17
2018-03-29T21:20:58.545Z,68.97
2018-03-29T21:23:27.700Z,65.00
2018-03-29T21:25:56.926Z,67.73
2018-03-29T21:28:25.943Z,66.73
2018-03-29T21:30:55.223Z,71.27
2018-03-29T21:33:24.214Z,68.67
2018-03-29T21:35:53.414Z,71.73
2018-03-29T21:38:23.325Z,68.67
2018-03-29T21:40:53.169Z,72.30
2018-03-29T21:43:23.087Z,74.83
2018-03-29T21:45:52.267Z,73.23
2018-03-29T21:48:21.177Z,81.10
2018-03-29T21:50:50.354Z,79.47
2018-03-29T21:53:19.452Z,80.17
2018-03-29T21:55:48.532Z,81.47
2018-03-29T21:58:17.642Z,79.27
2018-03-29T22:00:46.739Z,81.93
2018-03-29T22:03:15.863Z,79.13
2018-03-29T22:05:44.853Z,74.63
2018-03-29T22:08:13.859Z,81.83
2018-03-29T22:10:43.080Z,79.87
2018-03-29T22:13:12.003Z,77.13
2018-03-29T22:15:41.050Z,85.60
2018-03-29T22:18:10.043Z,86.87
2018-03-29T22:20:39.171Z,81.43
2018-03-29T22:23:08.131Z,86.47
2018-03-29T22:25:37.230Z,85.27
2018-03-29T22:28:06.123Z,80.10
2018-03-29T22:30:35.179Z,78.20
2018-03-29T22:33:04.242Z,80.20
2018-03-29T22:35:34.421Z,77.70
2018-03-29T22:38:03.494Z,74.13
2018-03-29T22:40:32.703Z,74.50
2018-03-29T22:43:01.695Z,76.30
2018-03-29T22:45:30.922Z,74.17
2018-03-29T22:47:59.939Z,72.00
2018-03-29T22:50:29.012Z,71.23
2018-03-29T22:52:58.006Z,72.90
2018-03-29T22:55:27.003Z,69.70
2018-03-29T22:57:56.003Z,71.43
2018-03-29T23:00:38.231Z,72.20
2018-03-29T23:03:07.404Z,70.73
2018-03-29T23:05:36.562Z,70.90
2018-03-29T23:08:05.597Z,70.30
2018-03-29T23:10:35.853Z,68.97
2018-03-29T23:13:05.086Z,75.47
2018-03-29T23:15:34.285Z,73.30
2018-03-29T23:18:03.382Z,74.00
2018-03-29T23:20:32.383Z,74.57
2018-03-29T23:23:01.481Z,72.50
2018-03-29T23:25:30.470Z,81.17
2018-03-29T23:27:59.557Z,78.37
2018-03-29T23:30:28.708Z,88.50
2018-03-29T23:32:57.955Z,76.90
2018-03-29T23:35:26.917Z,71.63
2018-03-29T23:37:55.995Z,76.77
2018-03-29T23:40:25.038Z,81.17
2018-03-29T23:42:54.867Z,82.93
2018-03-29T23:45:24.057Z,90.93
2018-03-29T23:47:54.598Z,96.27
2018-03-29T23:50:23.785Z,100.27
2018-03-29T23:52:53.769Z,109.10
2018-03-29T23:55:23.662Z,97.87
2018-03-29T23:58:15.006Z,81.77
